Time;durP1;ratioP1;P1;durP2;ratioP2;P2;SDS_P1;SDS_P2;PMS_P1;PMS_P2;Temp;Humidity;BMP_temperature;BMP_pressure;BME280_temperature;BME280_humidity;BME280_pressure;Samples;Min_cycle;Max_cycle;Signal;HPM_P1;HPM_P2
2022/07/09 05:03:17;;;;;;;9.75;3.35;;;14.00;95.60;;;;;;5157400;23;20046;-79
2022/07/09 05:05:43;;;;;;;5.93;2.92;;;14.00;95.30;;;;;;4979724;28;20026;-82
2022/07/09 05:08:09;;;;;;;7.35;2.95;;;14.10;95.20;;;;;;4986274;28;20142;-80
2022/07/09 05:10:55;;;;;;;6.57;2.90;;;14.10;95.10;;;;;;4986705;28;20216;-80
2022/07/09 05:13:28;;;;;;;8.07;3.45;;;14.20;95.00;;;;;;4968393;28;20038;-80
2022/07/09 05:15:54;;;;;;;5.20;2.97;;;14.30;94.70;;;;;;4968430;28;20038;-79
2022/07/09 05:18:30;;;;;;;4.18;2.85;;;14.30;94.60;;;;;;4986421;28;20216;-82
2022/07/09 05:20:59;;;;;;;6.88;3.10;;;14.30;94.50;;;;;;4986366;28;20031;-81
2022/07/09 05:23:26;;;;;;;7.45;3.00;;;14.40;94.40;;;;;;4986155;28;20317;-78
2022/07/09 05:25:53;;;;;;;5.05;3.15;;;14.40;94.20;;;;;;4985613;28;20122;-78
2022/07/09 05:28:19;;;;;;;6.80;3.38;;;14.50;94.10;;;;;;4954098;28;20357;-79
2022/07/09 05:30:44;;;;;;;6.55;3.55;;;14.60;94.00;;;;;;4984279;28;20039;-81
2022/07/09 05:33:10;;;;;;;7.03;3.72;;;14.70;93.70;;;;;;4985682;28;20046;-81
2022/07/09 05:35:36;;;;;;;9.00;4.35;;;14.80;93.60;;;;;;4962085;29;20047;-80
2022/07/09 05:38:02;;;;;;;9.73;4.75;;;14.80;93.50;;;;;;4949309;29;20023;-79
2022/07/09 05:40:28;;;;;;;9.20;4.30;;;14.90;93.50;;;;;;4966243;29;20086;-77
2022/07/09 05:43:06;;;;;;;9.10;4.82;;;15.00;93.40;;;;;;4946245;29;20039;-79
2022/07/09 05:45:32;;;;;;;6.93;3.72;;;15.10;93.00;;;;;;4964959;28;20102;-80
2022/07/09 05:47:58;;;;;;;6.75;3.35;;;15.10;92.80;;;;;;4965875;29;20071;-78
2022/07/09 05:50:24;;;;;;;6.43;3.28;;;15.20;92.70;;;;;;4965007;29;20054;-79
2022/07/09 05:52:50;;;;;;;7.78;3.40;;;15.40;92.70;;;;;;4965585;29;20070;-79
2022/07/09 05:55:15;;;;;;;4.40;3.03;;;15.50;92.10;;;;;;4966088;29;20258;-79
2022/07/09 05:57:50;;;;;;;4.72;3.20;;;15.70;91.80;;;;;;4970548;28;20074;-79
2022/07/09 06:00:19;;;;;;;6.32;2.50;;;15.80;91.80;;;;;;4951746;28;20320;-79
2022/07/09 06:02:47;;;;;;;;;;;16.00;91.40;;;;;;4996581;28;20116;-79
2022/07/09 06:05:13;;;;;;;;;;;16.10;91.00;;;;;;4987543;28;20105;-80
2022/07/09 06:07:45;;;;;;;6.75;3.17;;;16.30;90.60;;;;;;5004460;28;19913;-80
2022/07/09 06:10:17;;;;;;;6.18;3.05;;;16.40;90.40;;;;;;5003751;28;20033;-82
2022/07/09 06:13:08;;;;;;;7.38;3.05;;;16.50;90.30;;;;;;5004425;28;20142;-79
2022/07/09 06:15:37;;;;;;;6.60;2.63;;;16.70;90.00;;;;;;5002976;28;20041;-80
2022/07/09 06:18:09;;;;;;;7.78;3.25;;;16.70;89.70;;;;;;5003218;28;20042;-80
2022/07/09 06:20:35;;;;;;;8.07;2.55;;;16.80;89.10;;;;;;4986941;28;20073;-78
2022/07/09 06:23:10;;;;;;;6.10;2.53;;;16.90;88.90;;;;;;5004354;28;20219;-79
2022/07/09 06:25:42;;;;;;;5.45;3.03;;;16.90;88.60;;;;;;4986961;28;20054;-80
2022/07/09 06:28:08;;;;;;;6.30;2.63;;;17.10;88.40;;;;;;4986986;28;20032;-79
2022/07/09 06:30:33;;;;;;;6.63;2.78;;;17.20;88.00;;;;;;4986021;28;20261;-80
2022/07/09 06:33:03;;;;;;;4.55;2.40;;;17.40;87.80;;;;;;5002807;28;20220;-79
2022/07/09 06:35:35;;;;;;;4.47;2.22;;;17.60;87.10;;;;;;5004304;28;20026;-81
2022/07/09 06:38:04;;;;;;;4.85;2.20;;;17.80;86.40;;;;;;4987303;28;20030;-79
2022/07/09 06:40:30;;;;;;;5.10;2.20;;;18.00;85.50;;;;;;5007156;28;20034;-76
2022/07/09 06:42:56;;;;;;;7.75;3.05;;;18.20;84.90;;;;;;5015173;28;20030;-77
2022/07/09 06:45:32;;;;;;;4.80;2.40;;;18.20;84.60;;;;;;5012185;28;20049;-78
2022/07/09 06:47:58;;;;;;;5.65;2.42;;;18.40;84.10;;;;;;5016013;28;20035;-77
2022/07/09 06:50:24;;;;;;;6.10;2.70;;;18.30;84.20;;;;;;4992940;28;20041;-77
2022/07/09 06:52:50;;;;;;;6.63;2.47;;;18.30;84.30;;;;;;5003944;28;20034;-73
2022/07/09 06:55:16;;;;;;;4.05;2.53;;;18.40;84.30;;;;;;5003627;28;20189;-80
2022/07/09 06:57:45;;;;;;;5.88;2.40;;;18.40;83.90;;;;;;5003793;28;20315;-76
2022/07/09 07:00:11;;;;;;;4.13;2.45;;;18.50;83.80;;;;;;4978540;28;20027;-78
2022/07/09 07:02:37;;;;;;;4.05;2.95;;;18.70;83.10;;;;;;4969174;28;20224;-77
2022/07/09 07:05:05;;;;;;;5.65;2.70;;;18.90;82.10;;;;;;4966739;28;20038;-78
2022/07/09 07:07:31;;;;;;;9.23;2.95;;;19.20;81.70;;;;;;4967392;28;20026;-77
2022/07/09 07:09:57;;;;;;;5.85;2.55;;;19.50;80.80;;;;;;4984135;28;20030;-77
2022/07/09 07:12:23;;;;;;;5.60;2.75;;;19.70;79.90;;;;;;4995169;28;20093;-78
2022/07/09 07:14:56;;;;;;;6.03;2.92;;;19.90;79.30;;;;;;5003287;28;20054;-79
2022/07/09 07:17:21;;;;;;;6.82;2.40;;;20.10;78.60;;;;;;5003204;28;20046;-76
2022/07/09 07:19:47;;;;;;;4.35;2.20;;;20.20;78.30;;;;;;5005139;28;20038;-78
2022/07/09 07:22:13;;;;;;;5.80;2.45;;;20.40;77.70;;;;;;4988965;28;20022;-76
2022/07/09 07:24:39;;;;;;;5.18;2.28;;;20.50;76.90;;;;;;4987195;28;20026;-76
2022/07/09 07:27:05;;;;;;;6.78;4.07;;;20.80;76.50;;;;;;5003565;28;20331;-76
2022/07/09 07:29:30;;;;;;;5.40;2.58;;;20.90;76.10;;;;;;5002913;28;20030;-76
2022/07/09 07:31:57;;;;;;;5.25;2.55;;;21.00;75.70;;;;;;5001838;28;20058;-79
2022/07/09 07:34:24;;;;;;;6.25;2.60;;;21.20;75.30;;;;;;4982400;28;20046;-78
2022/07/09 07:36:51;;;;;;;4.40;1.90;;;21.10;74.90;;;;;;4994511;28;20053;-78
2022/07/09 07:39:17;;;;;;;6.53;2.13;;;21.20;75.10;;;;;;4986106;28;20029;-76
2022/07/09 07:42:01;;;;;;;6.72;2.30;;;21.20;74.40;;;;;;5002568;28;20063;-79
2022/07/09 07:44:28;;;;;;;6.22;2.35;;;21.30;74.60;;;;;;5002845;28;20201;-76
2022/07/09 07:46:54;;;;;;;7.78;2.15;;;21.40;74.70;;;;;;5001723;28;20358;-77
2022/07/09 07:49:20;;;;;;;3.95;1.88;;;21.50;73.80;;;;;;5002525;28;20106;-78
2022/07/09 07:51:48;;;;;;;6.05;2.20;;;21.70;74.10;;;;;;5002695;28;20325;-78
2022/07/09 07:54:14;;;;;;;4.80;1.85;;;21.90;73.80;;;;;;4970058;28;20046;-77
2022/07/09 07:56:42;;;;;;;5.40;1.73;;;21.80;73.20;;;;;;4989414;28;20026;-77
2022/07/09 07:59:08;;;;;;;4.38;1.77;;;21.80;73.00;;;;;;5006490;28;20045;-80
2022/07/09 08:01:36;;;;;;;5.07;1.70;;;21.70;73.50;;;;;;4990157;28;20049;-81
2022/07/09 08:04:26;;;;;;;6.13;2.30;;;21.90;73.20;;;;;;4981576;28;20038;-81
2022/07/09 08:11:05;;;;;;;5.35;1.60;;;22.10;72.70;;;;;;4928231;29;20044;-80
2022/07/09 08:16:47;;;;;;;5.95;2.00;;;22.30;71.10;;;;;;4929972;29;20032;-79
2022/07/09 08:19:24;;;;;;;4.70;1.83;;;22.50;71.30;;;;;;4927642;29;20330;-80
2022/07/09 08:26:05;;;;;;;6.05;1.90;;;22.60;70.50;;;;;;4893743;29;20051;-79
2022/07/09 08:33:04;;;;;;;6.10;1.50;;;22.70;70.30;;;;;;4912225;29;20054;-78
2022/07/09 08:35:30;;;;;;;5.15;1.77;;;22.80;69.70;;;;;;4910527;29;20066;-77
2022/07/09 08:37:56;;;;;;;7.97;3.00;;;23.00;68.90;;;;;;4912148;29;20301;-78
2022/07/09 08:40:23;;;;;;;4.75;1.42;;;23.10;69.10;;;;;;4926949;29;20043;-77
2022/07/09 08:43:19;;;;;;;;;;;;;;;;;;;;;
2022/07/09 08:46:05;;;;;;;3.75;1.13;;;23.10;68.20;;;;;;4934740;28;20378;-76
2022/07/09 08:48:43;;;;;;;5.15;1.60;;;23.20;68.60;;;;;;5006383;28;20057;-78
2022/07/09 08:51:15;;;;;;;;;;;23.40;67.80;;;;;;5006087;28;20316;-77
2022/07/09 08:53:44;;;;;;;5.13;1.05;;;23.30;67.60;;;;;;4977378;28;19952;-77
2022/07/09 08:56:10;;;;;;;3.22;0.88;;;23.20;67.90;;;;;;4985846;28;20085;-78
2022/07/09 08:58:38;;;;;;;2.45;1.00;;;23.30;68.10;;;;;;5004353;28;20026;-76
2022/07/09 09:01:05;;;;;;;2.70;0.82;;;23.50;68.30;;;;;;4969687;28;20038;-75
2022/07/09 09:03:31;;;;;;;3.95;0.88;;;23.60;67.60;;;;;;5004162;28;20069;-77
2022/07/09 09:06:11;;;;;;;4.43;0.90;;;23.70;67.70;;;;;;4985210;28;20117;-77
2022/07/09 09:08:45;;;;;;;3.80;0.93;;;23.80;67.30;;;;;;4944217;29;20488;-76
2022/07/09 09:11:15;;;;;;;3.08;0.75;;;23.90;67.00;;;;;;4944054;29;20055;-76
2022/07/09 09:13:48;;;;;;;2.42;0.70;;;23.90;67.60;;;;;;4928253;29;20103;-77
2022/07/09 09:16:22;;;;;;;4.22;1.00;;;24.00;67.60;;;;;;4943262;28;20076;-77
2022/07/09 09:18:52;;;;;;;2.33;0.80;;;24.10;66.20;;;;;;4944278;29;20036;-77
2022/07/09 09:21:25;;;;;;;3.08;1.00;;;24.00;65.90;;;;;;4943622;29;20067;-77
2022/07/09 09:24:11;;;;;;;2.22;0.88;;;23.90;66.60;;;;;;4943658;29;20091;-76
2022/07/09 09:26:48;;;;;;;4.10;0.90;;;24.00;66.20;;;;;;4927809;29;20047;-77
2022/07/09 09:29:14;;;;;;;2.53;0.55;;;24.10;65.70;;;;;;4943207;29;20079;-78
2022/07/09 09:31:50;;;;;;;2.15;0.50;;;24.20;65.00;;;;;;4943321;29;20047;-77
2022/07/09 09:34:20;;;;;;;3.05;0.60;;;24.40;65.50;;;;;;4971894;28;20046;-76
2022/07/09 09:36:51;;;;;;;1.85;0.70;;;24.40;63.90;;;;;;5003484;28;20080;-76
2022/07/09 09:39:31;;;;;;;4.75;0.90;;;24.40;63.40;;;;;;5003475;28;20046;-78
2022/07/09 09:42:04;;;;;;;3.83;0.68;;;24.50;64.30;;;;;;5002501;28;20026;-78
2022/07/09 09:44:40;;;;;;;2.30;0.65;;;24.70;64.30;;;;;;5002371;28;20050;-78
2022/07/09 09:47:10;;;;;;;2.67;1.00;;;25.00;63.50;;;;;;4985910;28;20055;-80
2022/07/09 09:49:41;;;;;;;2.72;0.77;;;25.10;62.90;;;;;;4985693;28;20050;-77
2022/07/09 09:52:18;;;;;;;4.55;0.95;;;25.10;62.30;;;;;;5002450;28;20038;-76
2022/07/09 09:55:01;;;;;;;2.33;0.85;;;25.10;62.60;;;;;;5003839;28;20030;-76
2022/07/09 09:57:28;;;;;;;4.13;0.95;;;25.30;62.20;;;;;;5003523;28;20027;-80
2022/07/09 09:59:57;;;;;;;2.63;0.68;;;25.40;62.10;;;;;;5004024;28;20108;-78
2022/07/09 10:02:28;;;;;;;1.98;0.85;;;25.60;61.90;;;;;;4995148;28;20073;-79
2022/07/09 10:05:23;;;;;;;3.97;0.80;;;25.80;61.60;;;;;;4981605;28;20035;-79
2022/07/09 10:07:54;;;;;;;2.80;1.17;;;26.00;61.00;;;;;;4966665;28;20145;-78
2022/07/09 10:10:20;;;;;;;2.85;0.80;;;26.40;60.50;;;;;;5002579;28;20072;-80
2022/07/09 10:12:47;;;;;;;5.22;0.85;;;26.50;59.80;;;;;;5004169;28;20026;-81
2022/07/09 10:15:26;;;;;;;3.67;0.95;;;26.80;59.20;;;;;;4985556;28;20030;-80
2022/07/09 10:17:52;;;;;;;3.40;1.00;;;27.00;58.70;;;;;;4985894;28;20116;-80
2022/07/09 10:20:31;;;;;;;3.65;0.90;;;27.00;58.90;;;;;;4970140;28;20036;-80
2022/07/09 10:23:07;;;;;;;2.17;0.70;;;26.70;58.60;;;;;;4963018;29;20229;-84
2022/07/09 10:25:45;;;;;;;3.20;0.90;;;26.80;58.80;;;;;;4975353;28;20269;-79
2022/07/09 10:28:22;;;;;;;4.32;1.08;;;26.80;59.00;;;;;;4986570;28;20045;-80
2022/07/09 10:30:48;;;;;;;3.25;0.95;;;26.80;58.60;;;;;;4969408;28;20208;-77
2022/07/09 10:33:34;;;;;;;3.28;0.60;;;26.50;59.30;;;;;;4981759;28;20317;-81
2022/07/09 10:36:30;;;;;;;2.55;0.70;;;26.40;59.20;;;;;;4971602;28;20048;-82
2022/07/09 10:38:59;;;;;;;2.08;0.68;;;26.60;58.30;;;;;;4983987;28;20201;-80
2022/07/09 10:41:45;;;;;;;2.33;0.90;;;26.50;58.40;;;;;;4984742;28;20034;-83
2022/07/09 10:44:59;;;;;;;4.45;0.80;;;26.50;58.20;;;;;;5001742;28;20228;-81
2022/07/09 10:51:04;;;;;;;2.65;0.60;;;27.30;56.90;;;;;;5003594;28;20038;-81
2022/07/09 10:53:42;;;;;;;5.40;0.60;;;27.60;56.40;;;;;;4968378;28;20040;-80
2022/07/09 10:56:08;;;;;;;;;;;27.90;55.40;;;;;;4985856;28;20030;-80
2022/07/09 10:58:34;;;;;;;4.07;0.75;;;28.30;55.20;;;;;;4985643;28;19952;-79
2022/07/09 11:01:04;;;;;;;2.28;0.73;;;28.90;54.60;;;;;;5002006;28;20034;-80
2022/07/09 11:03:58;;;;;;;2.75;0.60;;;29.20;52.80;;;;;;4985594;28;20386;-79
2022/07/09 11:10:30;;;;;;;2.78;0.70;;;29.70;53.00;;;;;;5003277;28;20018;-78
2022/07/09 11:13:06;;;;;;;2.63;0.63;;;29.80;52.40;;;;;;5003444;28;20097;-78
2022/07/09 11:15:34;;;;;;;3.70;0.60;;;29.30;51.70;;;;;;4985751;28;20045;-78
2022/07/09 11:18:04;;;;;;;2.53;0.68;;;29.30;52.80;;;;;;4986377;28;20065;-78
2022/07/09 11:20:36;;;;;;;2.25;0.80;;;28.90;54.00;;;;;;5003397;28;20030;-78
2022/07/09 11:23:02;;;;;;;2.65;0.73;;;28.70;53.90;;;;;;5002635;28;20042;-78
2022/07/09 11:25:29;;;;;;;2.40;0.75;;;28.60;54.50;;;;;;4985750;28;20029;-77
2022/07/09 11:28:06;;;;;;;2.75;0.70;;;28.40;55.10;;;;;;5001131;28;20332;-77
2022/07/09 11:30:43;;;;;;;2.67;1.15;;;28.40;55.40;;;;;;5002544;28;20034;-81
2022/07/09 11:33:12;;;;;;;2.40;0.63;;;28.40;55.80;;;;;;4967521;28;20046;-78
2022/07/09 11:35:46;;;;;;;3.65;0.80;;;28.40;55.40;;;;;;4959998;28;20037;-78
2022/07/09 11:38:11;;;;;;;2.55;0.70;;;28.40;55.00;;;;;;4986300;28;20204;-80
2022/07/09 11:40:37;;;;;;;3.78;0.55;;;28.40;55.30;;;;;;5001749;28;20030;-78
2022/07/09 11:43:16;;;;;;;2.42;0.70;;;28.70;54.50;;;;;;4969190;28;20034;-81
2022/07/09 11:45:54;;;;;;;2.22;0.60;;;29.80;54.00;;;;;;4969167;28;20034;-78
2022/07/09 11:48:19;;;;;;;1.30;0.47;;;30.70;51.30;;;;;;5000947;28;20126;-74
2022/07/09 11:51:06;;;;;;;2.38;0.60;;;30.60;52.00;;;;;;5002836;28;20036;-77
2022/07/09 11:53:51;;;;;;;2.60;0.70;;;30.50;52.10;;;;;;4986851;28;20065;-80
2022/07/09 11:56:19;;;;;;;2.47;0.75;;;30.30;52.50;;;;;;5010285;28;20292;-76
2022/07/09 11:58:52;;;;;;;2.42;0.50;;;30.00;53.20;;;;;;5011246;28;20023;-78
2022/07/09 12:02:02;;;;;;;2.70;0.73;;;29.70;53.90;;;;;;5008943;28;20047;-79
2022/07/09 12:04:45;;;;;;;2.20;0.60;;;29.80;54.20;;;;;;4987041;28;20065;-79
2022/07/09 12:07:14;;;;;;;2.80;0.60;;;30.10;53.40;;;;;;4987583;28;20216;-78
2022/07/09 12:09:40;;;;;;;3.67;0.60;;;30.50;52.90;;;;;;4972551;28;20101;-77
2022/07/09 12:12:08;;;;;;;3.08;0.60;;;30.80;52.70;;;;;;4988236;28;20082;-77
2022/07/09 12:14:36;;;;;;;2.42;0.63;;;31.80;52.40;;;;;;4985870;28;20027;-79
2022/07/09 12:17:37;;;;;;;1.63;0.60;;;33.60;50.40;;;;;;4966175;28;20066;-80
2022/07/09 12:20:07;;;;;;;2.78;0.60;;;35.70;49.00;;;;;;4926890;29;20098;-78
2022/07/09 12:22:36;;;;;;;2.08;0.40;;;36.00;47.20;;;;;;4972640;28;20062;-79
2022/07/09 12:25:17;;;;;;;2.00;0.45;;;34.80;47.90;;;;;;4965520;28;20032;-78
2022/07/09 12:27:49;;;;;;;2.30;0.30;;;33.00;49.40;;;;;;4953616;29;20035;-78
2022/07/09 12:30:16;;;;;;;2.00;0.70;;;32.20;50.60;;;;;;4981954;28;20034;-76
2022/07/09 12:32:49;;;;;;;2.78;0.57;;;31.90;50.90;;;;;;4964863;28;20050;-78
2022/07/09 12:35:15;;;;;;;2.65;0.45;;;31.90;50.60;;;;;;4980139;28;20090;-78
2022/07/09 12:37:44;;;;;;;2.67;0.47;;;31.80;50.80;;;;;;4933069;28;20070;-78
2022/07/09 12:40:18;;;;;;;1.95;0.52;;;31.30;51.20;;;;;;4981635;28;20039;-78
2022/07/09 12:43:24;;;;;;;2.13;0.70;;;31.60;51.90;;;;;;4982628;28;20345;-80
2022/07/09 12:46:01;;;;;;;2.65;0.50;;;34.10;49.70;;;;;;4930134;28;20051;-79
2022/07/09 12:48:37;;;;;;;1.67;0.50;;;35.90;46.80;;;;;;4992293;28;20098;-78
2022/07/09 12:51:26;;;;;;;1.50;0.60;;;36.70;46.90;;;;;;4946739;29;20046;-79
2022/07/09 12:54:07;;;;;;;2.10;0.40;;;36.40;46.20;;;;;;4919769;29;20050;-78
2022/07/09 12:56:58;;;;;;;1.02;0.45;;;35.80;46.80;;;;;;4948579;29;20324;-78
2022/07/09 12:59:33;;;;;;;1.73;0.52;;;35.60;46.90;;;;;;4969201;28;20225;-78
2022/07/09 13:02:19;;;;;;;2.30;0.60;;;36.50;46.30;;;;;;4951317;28;20078;-78
2022/07/09 13:04:46;;;;;;;;;;;38.40;44.90;;;;;;4986011;28;20099;-79
2022/07/09 13:07:38;;;;;;;1.60;0.40;;;39.80;43.50;;;;;;5004904;28;19906;-80
2022/07/09 13:10:06;;;;;;;1.35;0.43;;;40.10;43.00;;;;;;5004321;28;20022;-78
2022/07/09 13:12:38;;;;;;;1.98;0.63;;;40.70;42.40;;;;;;5003821;28;20385;-78
2022/07/09 13:15:25;;;;;;;2.15;0.50;;;40.20;42.50;;;;;;4991661;28;20089;-78
2022/07/09 13:18:05;;;;;;;1.20;0.30;;;39.00;42.60;;;;;;4987315;28;20463;-79
2022/07/09 13:20:31;;;;;;;;;;;37.90;44.10;;;;;;4968694;28;20103;-78
2022/07/09 13:23:06;;;;;;;1.38;0.55;;;38.00;44.30;;;;;;4985560;28;19933;-79
2022/07/09 13:25:45;;;;;;;1.83;0.40;;;39.40;43.80;;;;;;4984946;28;20023;-79
2022/07/09 13:28:14;;;;;;;1.05;0.30;;;39.50;42.50;;;;;;4995969;28;20031;-79
2022/07/09 13:30:43;;;;;;;3.17;0.50;;;40.90;41.80;;;;;;4984753;28;20046;-80
2022/07/09 13:33:27;;;;;;;1.45;0.30;;;41.70;41.20;;;;;;4944211;29;20042;-79
2022/07/09 13:35:58;;;;;;;1.55;0.40;;;42.10;40.20;;;;;;4948889;29;20054;-78
2022/07/09 13:38:29;;;;;;;1.58;0.40;;;42.40;40.30;;;;;;4963871;29;20398;-78
2022/07/09 13:40:55;;;;;;;0.90;0.28;;;42.00;40.50;;;;;;4947924;29;20341;-79
2022/07/09 13:43:30;;;;;;;2.58;0.50;;;40.60;40.70;;;;;;4946653;29;20039;-78
2022/07/09 13:45:58;;;;;;;0.90;0.40;;;39.50;42.00;;;;;;4945395;29;20039;-77
2022/07/09 13:48:26;;;;;;;1.58;0.40;;;38.70;42.90;;;;;;4946770;29;20106;-77
2022/07/09 13:50:58;;;;;;;1.52;0.40;;;38.00;42.60;;;;;;4962735;29;20069;-78
2022/07/09 13:53:32;;;;;;;2.55;0.50;;;37.10;43.20;;;;;;4958239;28;20043;-77
2022/07/09 13:56:01;;;;;;;1.42;0.30;;;36.50;44.40;;;;;;4959630;29;20313;-78
2022/07/09 13:58:27;;;;;;;1.58;0.40;;;36.60;44.50;;;;;;4946650;29;20047;-76
2022/07/09 14:01:19;;;;;;;1.77;0.50;;;35.80;44.30;;;;;;4962645;28;20391;-81
2022/07/09 14:03:49;;;;;;;1.70;0.57;;;35.20;45.20;;;;;;4960667;28;20046;-80
2022/07/09 14:06:18;;;;;;;1.40;0.30;;;34.00;46.40;;;;;;4998203;28;20023;-76
2022/07/09 14:09:12;;;;;;;1.20;0.43;;;33.50;47.40;;;;;;5003795;28;20370;-76
2022/07/09 14:12:05;;;;;;;1.45;0.30;;;33.20;47.70;;;;;;4983818;28;20027;-76
2022/07/09 14:14:44;;;;;;;2.88;0.77;;;33.00;48.00;;;;;;4982461;28;20272;-75
2022/07/09 14:17:17;;;;;;;2.35;0.70;;;33.00;48.00;;;;;;4967492;28;20034;-76
2022/07/09 14:19:42;;;;;;;2.42;0.60;;;32.90;47.90;;;;;;5003214;28;20027;-75
2022/07/09 14:22:27;;;;;;;2.72;0.50;;;33.10;48.10;;;;;;4980606;28;20038;-75
2022/07/09 14:31:28;;;;;;;3.00;0.60;;;33.50;47.90;;;;;;4976720;28;20045;-77
2022/07/09 14:33:54;;;;;;;2.20;0.63;;;32.90;48.10;;;;;;4904453;29;20036;-79
2022/07/09 14:36:20;;;;;;;3.13;0.65;;;33.40;47.70;;;;;;4971007;28;20045;-78
2022/07/09 14:38:54;;;;;;;1.90;0.60;;;33.60;48.00;;;;;;4999580;28;20320;-78
2022/07/09 14:41:41;;;;;;;2.15;0.60;;;33.90;46.80;;;;;;4984366;28;20176;-80
2022/07/09 14:44:12;;;;;;;3.00;0.63;;;34.20;46.80;;;;;;4986379;28;20069;-78
2022/07/09 14:47:44;;;;;;;2.22;0.60;;;34.80;46.60;;;;;;4994278;28;20355;-79
2022/07/09 14:50:00;;;;;;;2.33;0.50;;;34.70;47.10;;;;;;4991755;28;20134;-79
2022/07/09 14:52:35;;;;;;;1.95;0.50;;;34.50;46.90;;;;;;5002100;28;20049;-80
2022/07/09 14:55:08;;;;;;;2.08;0.55;;;34.50;47.30;;;;;;4968785;28;20030;-81
2022/07/09 14:57:37;;;;;;;3.35;0.55;;;36.60;45.60;;;;;;5002032;28;20326;-76
2022/07/09 15:00:21;;;;;;;3.05;1.25;;;38.40;43.50;;;;;;5002328;28;20325;-80
2022/07/09 15:03:17;;;;;;;1.92;0.60;;;39.40;42.80;;;;;;4989492;28;20256;-80
2022/07/09 15:05:59;;;;;;;1.73;0.32;;;39.90;42.20;;;;;;4984642;28;20058;-83
2022/07/09 15:08:43;;;;;;;1.73;0.52;;;39.20;42.80;;;;;;4984192;28;20260;-82
2022/07/09 15:11:38;;;;;;;1.95;0.47;;;38.70;43.10;;;;;;4967155;28;20110;-80
2022/07/09 15:14:04;;;;;;;1.95;0.70;;;38.60;43.10;;;;;;4938535;28;20194;-82
2022/07/09 15:16:30;;;;;;;1.98;0.57;;;39.70;41.60;;;;;;4965614;28;20049;-79
2022/07/09 15:18:56;;;;;;;1.85;0.60;;;41.10;40.70;;;;;;4966909;28;20097;-79
2022/07/09 15:21:27;;;;;;;2.20;0.65;;;41.50;40.90;;;;;;4983603;28;20309;-83
2022/07/09 15:24:29;;;;;;;1.70;0.50;;;42.60;40.30;;;;;;4970089;28;20033;-81
2022/07/09 15:27:00;;;;;;;3.45;0.77;;;41.80;40.20;;;;;;4966649;28;20046;-80
2022/07/09 15:32:44;;;;;;;3.03;0.77;;;39.00;42.10;;;;;;4949688;28;20034;-80
2022/07/09 15:35:20;;;;;;;1.52;0.43;;;39.50;42.10;;;;;;4983583;28;20328;-82
2022/07/09 15:45:44;;;;;;;2.27;0.70;;;40.50;42.00;;;;;;4887034;29;20040;-83
2022/07/09 15:48:13;;;;;;;1.50;0.57;;;41.40;41.40;;;;;;4867663;29;20057;-81
2022/07/09 15:51:03;;;;;;;2.65;0.65;;;41.10;41.20;;;;;;4868504;29;20085;-83
2022/07/09 15:53:41;;;;;;;2.42;0.60;;;39.40;42.40;;;;;;4852592;29;20041;-80
2022/07/09 15:56:07;;;;;;;1.33;0.50;;;37.60;44.00;;;;;;4852823;29;20047;-79
2022/07/09 15:58:40;;;;;;;3.28;0.82;;;36.30;45.60;;;;;;4859082;29;20021;-81
2022/07/09 16:01:06;;;;;;;2.75;0.75;;;35.00;46.70;;;;;;4885953;29;20060;-80
2022/07/09 16:03:33;;;;;;;1.88;0.80;;;33.80;47.50;;;;;;4882151;29;20075;-79
2022/07/09 16:06:22;;;;;;;4.18;1.30;;;32.90;49.00;;;;;;4867777;29;20045;-82
2022/07/09 16:09:03;;;;;;;2.95;0.80;;;32.20;50.00;;;;;;4868601;29;20053;-82
2022/07/09 16:14:20;;;;;;;4.85;1.55;;;32.70;50.20;;;;;;4868547;29;20086;-81
2022/07/09 16:20:14;;;;;;;3.55;0.98;;;35.00;48.30;;;;;;4872320;29;20025;-80
2022/07/09 16:26:13;;;;;;;1.98;0.60;;;36.90;45.90;;;;;;4872065;29;20041;-78
2022/07/09 16:28:41;;;;;;;2.42;0.80;;;35.30;46.30;;;;;;4912713;29;20050;-79
2022/07/09 16:31:07;;;;;;;3.75;1.00;;;34.30;47.70;;;;;;4909611;29;20099;-81
2022/07/09 16:34:12;;;;;;;3.78;0.90;;;33.60;48.40;;;;;;4927713;29;20227;-78
2022/07/09 16:36:40;;;;;;;3.20;0.90;;;33.30;49.00;;;;;;4835026;29;20043;-81
2022/07/09 16:39:26;;;;;;;2.58;1.00;;;32.10;50.50;;;;;;4908985;29;20040;-81
2022/07/09 16:41:56;;;;;;;2.30;0.90;;;31.50;51.40;;;;;;4945884;29;20035;-81
2022/07/09 16:44:23;;;;;;;2.60;0.90;;;31.00;52.00;;;;;;4952349;28;20042;-77
2022/07/09 16:46:49;;;;;;;3.10;1.08;;;31.00;52.40;;;;;;4949406;29;20058;-78
2022/07/09 16:49:17;;;;;;;2.03;1.10;;;31.10;52.20;;;;;;4950774;29;20027;-79
2022/07/09 16:51:50;;;;;;;3.05;1.20;;;30.80;52.50;;;;;;4964060;28;20054;-79
2022/07/09 16:54:20;;;;;;;2.63;0.80;;;30.20;53.60;;;;;;4987261;28;20122;-80
2022/07/09 16:56:51;;;;;;;2.33;0.98;;;29.80;54.20;;;;;;4986116;28;20030;-79
2022/07/09 16:59:16;;;;;;;2.65;0.98;;;29.30;54.80;;;;;;4979124;28;20097;-80
2022/07/09 17:01:45;;;;;;;3.35;1.10;;;29.10;55.30;;;;;;4967986;28;20039;-80
2022/07/09 17:04:36;;;;;;;;;;;29.10;55.50;;;;;;4970950;28;20114;-81
2022/07/09 17:07:04;;;;;;;2.03;0.85;;;29.20;55.60;;;;;;4987446;28;19914;-83
2022/07/09 17:09:33;;;;;;;2.70;0.77;;;29.30;55.10;;;;;;4988025;28;20236;-80
2022/07/09 17:12:02;;;;;;;3.33;0.90;;;29.00;55.30;;;;;;4987163;28;20035;-83
2022/07/09 17:14:37;;;;;;;2.28;0.90;;;29.10;55.50;;;;;;4975214;28;20034;-81
2022/07/09 17:17:28;;;;;;;2.15;1.10;;;29.20;55.70;;;;;;4981399;28;20034;-81
2022/07/09 17:20:13;;;;;;;2.22;1.13;;;30.00;54.70;;;;;;4991108;28;20062;-80
2022/07/09 17:22:58;;;;;;;3.83;1.17;;;31.30;53.20;;;;;;4991700;28;20094;-81
2022/07/09 17:25:49;;;;;;;2.35;1.15;;;31.70;52.10;;;;;;4975166;28;20050;-80
2022/07/09 17:28:21;;;;;;;2.80;0.82;;;31.20;52.50;;;;;;4996654;28;20023;-78
2022/07/09 17:30:49;;;;;;;2.90;1.00;;;30.70;53.30;;;;;;4992194;28;20051;-83
2022/07/09 17:33:15;;;;;;;1.50;0.70;;;30.40;53.70;;;;;;4968500;28;20061;-81
2022/07/09 17:35:41;;;;;;;3.03;1.33;;;30.00;54.00;;;;;;4985332;28;20031;-76
2022/07/09 17:38:09;;;;;;;3.00;1.30;;;29.50;55.00;;;;;;4979090;28;20252;-77
2022/07/09 17:40:35;;;;;;;4.72;1.40;;;29.30;55.10;;;;;;4952202;28;20045;-77
2022/07/09 17:43:01;;;;;;;3.35;0.93;;;29.10;55.40;;;;;;4985200;28;20069;-77
2022/07/09 17:45:26;;;;;;;2.72;1.02;;;29.40;55.10;;;;;;4984707;28;20273;-78
2022/07/09 17:47:52;;;;;;;2.50;1.10;;;29.70;54.90;;;;;;4978996;28;20424;-78
2022/07/09 17:50:18;;;;;;;2.63;1.08;;;29.80;54.80;;;;;;4976014;28;20035;-77
2022/07/09 17:52:44;;;;;;;2.35;1.00;;;30.00;54.40;;;;;;4967625;28;20321;-76
2022/07/09 17:55:19;;;;;;;3.17;1.00;;;30.50;53.60;;;;;;4979474;28;20054;-75
2022/07/09 17:57:53;;;;;;;2.20;0.90;;;30.50;53.70;;;;;;4983125;28;20238;-78
2022/07/09 18:00:28;;;;;;;3.10;0.88;;;30.50;53.70;;;;;;4968399;28;20031;-79
2022/07/09 18:02:55;;;;;;;2.53;1.05;;;30.70;53.60;;;;;;4990620;28;20050;-76
2022/07/09 18:05:22;;;;;;;4.78;1.20;;;30.80;53.40;;;;;;5004608;28;20026;-75
2022/07/09 18:07:48;;;;;;;4.43;1.40;;;30.90;53.30;;;;;;4986849;28;20038;-76
2022/07/09 18:10:15;;;;;;;3.17;1.35;;;31.10;53.20;;;;;;5004681;28;20037;-75
2022/07/09 18:12:46;;;;;;;2.20;1.30;;;31.10;52.90;;;;;;5002864;28;20109;-78
2022/07/09 18:15:12;;;;;;;3.35;1.30;;;30.70;53.40;;;;;;4983397;28;20085;-80
2022/07/09 18:17:41;;;;;;;3.28;1.23;;;30.50;53.90;;;;;;4984950;28;20305;-78
2022/07/09 18:20:16;;;;;;;3.17;1.20;;;29.80;54.80;;;;;;4985372;28;20034;-80
2022/07/09 18:22:48;;;;;;;3.38;1.10;;;29.60;55.20;;;;;;4982287;28;20236;-79
2022/07/09 18:25:14;;;;;;;3.22;1.50;;;29.30;55.40;;;;;;4984867;28;20113;-77
2022/07/09 18:27:40;;;;;;;3.35;1.00;;;29.10;55.80;;;;;;4984493;28;20026;-77
2022/07/09 18:30:06;;;;;;;3.25;1.20;;;28.60;56.00;;;;;;4984321;28;20058;-78
2022/07/09 18:32:32;;;;;;;2.72;1.00;;;28.10;56.90;;;;;;4983373;28;20030;-78
2022/07/09 18:34:59;;;;;;;2.83;1.15;;;27.60;57.80;;;;;;4983606;28;20077;-78
2022/07/09 18:37:26;;;;;;;5.32;1.40;;;27.20;58.70;;;;;;4990516;28;20018;-77
2022/07/09 18:39:52;;;;;;;3.00;1.30;;;26.70;59.60;;;;;;5003313;28;20045;-78
2022/07/09 18:42:17;;;;;;;3.00;1.27;;;26.40;60.40;;;;;;5003994;28;20037;-77
2022/07/09 18:44:45;;;;;;;3.70;1.60;;;26.10;60.90;;;;;;5004024;28;20034;-77
2022/07/09 18:47:13;;;;;;;3.90;1.48;;;25.90;61.40;;;;;;5003737;28;20216;-77
2022/07/09 18:49:39;;;;;;;4.35;1.42;;;25.70;61.70;;;;;;5003478;28;20213;-77
2022/07/09 18:52:05;;;;;;;6.55;1.48;;;25.60;61.90;;;;;;4987064;28;20023;-78
2022/07/09 18:54:32;;;;;;;6.88;1.30;;;25.50;62.40;;;;;;4986303;28;20038;-77
2022/07/09 18:56:57;;;;;;;3.90;1.45;;;25.30;62.80;;;;;;5003933;28;20038;-77
2022/07/09 18:59:23;;;;;;;3.50;1.55;;;25.30;63.10;;;;;;5003888;28;20142;-76
2022/07/09 19:01:49;;;;;;;3.28;1.52;;;25.10;63.20;;;;;;5000571;28;20335;-77
2022/07/09 19:04:15;;;;;;;3.90;1.77;;;25.10;63.70;;;;;;4994844;28;20348;-78
2022/07/09 19:06:41;;;;;;;3.33;1.52;;;25.00;63.80;;;;;;4985981;28;20022;-77
2022/07/09 19:09:06;;;;;;;3.78;1.75;;;24.90;63.90;;;;;;4975909;28;20397;-76
2022/07/09 19:11:32;;;;;;;3.53;1.65;;;24.90;64.20;;;;;;4930967;29;20036;-77